Time;durP1;ratioP1;P1;durP2;ratioP2;P2;SDS_P1;SDS_P2;PMS_P1;PMS_P2;Temp;Humidity;BMP_temperature;BMP_pressure;BME280_temperature;BME280_humidity;BME280_pressure;Samples;Min_cycle;Max_cycle;Signal;HPM_P1;HPM_P2
2022/06/01 00:01:33;;;;;;;18.10;16.23;;;;;;;;;;5049305;28;20028;-71
2022/06/01 00:03:59;;;;;;;18.23;16.52;;;;;;;;;;5050703;28;20028;-71
2022/06/01 00:06:26;;;;;;;17.33;15.63;;;;;;;;;;5051693;28;20095;-71
2022/06/01 00:08:52;;;;;;;18.85;17.08;;;11.20;99.90;;;;;;5051532;28;20067;-70
2022/06/01 00:11:18;;;;;;;19.05;17.35;;;11.30;99.90;;;;;;5051177;28;20057;-68
2022/06/01 00:13:43;;;;;;;18.38;16.67;;;;;;;;;;5051550;28;20033;-70
2022/06/01 00:16:09;;;;;;;20.42;17.45;;;11.20;99.90;;;;;;5050980;28;20021;-70
2022/06/01 00:18:36;;;;;;;18.65;15.88;;;11.20;99.90;;;;;;5050857;28;20045;-70
2022/06/01 00:21:03;;;;;;;20.58;18.67;;;11.20;99.90;;;;;;5050835;28;20037;-70
2022/06/01 00:23:29;;;;;;;21.42;18.05;;;11.20;99.90;;;;;;5051464;28;20116;-70
2022/06/01 00:25:55;;;;;;;20.75;18.42;;;11.10;99.90;;;;;;5051145;28;20047;-70
2022/06/01 00:28:21;;;;;;;17.33;15.65;;;11.30;99.90;;;;;;5051573;28;20549;-70
2022/06/01 00:30:47;;;;;;;19.60;17.55;;;;;;;;;;5052054;28;20074;-69
2022/06/01 00:33:12;;;;;;;20.08;18.13;;;11.20;99.90;;;;;;5050245;28;20089;-70
2022/06/01 00:35:38;;;;;;;19.27;17.48;;;11.30;99.90;;;;;;5051200;28;20038;-70
2022/06/01 00:38:05;;;;;;;20.67;18.60;;;11.30;99.90;;;;;;5050597;28;20103;-70
2022/06/01 00:40:31;;;;;;;20.50;18.45;;;11.40;99.90;;;;;;5052224;28;20098;-70
2022/06/01 00:42:59;;;;;;;20.08;18.20;;;11.30;99.90;;;;;;5052100;28;20033;-70
2022/06/01 00:45:28;;;;;;;20.17;18.23;;;11.30;99.90;;;;;;5051279;28;20390;-70
2022/06/01 00:47:54;;;;;;;21.52;19.42;;;11.30;99.90;;;;;;5050188;28;20036;-70
2022/06/01 00:50:27;;;;;;;20.55;18.55;;;11.20;99.90;;;;;;5050487;28;20032;-70
2022/06/01 00:53:24;;;;;;;19.67;17.85;;;11.30;99.90;;;;;;5049436;28;20029;-70
2022/06/01 00:55:57;;;;;;;21.45;19.40;;;11.30;99.90;;;;;;5050829;28;20116;-70
2022/06/01 00:58:32;;;;;;;17.92;16.27;;;11.30;99.90;;;;;;5050399;28;20029;-70
2022/06/01 01:00:58;;;;;;;20.52;18.52;;;11.30;99.90;;;;;;5049086;28;20039;-70
2022/06/01 01:03:35;;;;;;;22.10;20.10;;;11.30;99.90;;;;;;5030793;28;20041;-70
2022/06/01 01:06:01;;;;;;;20.80;18.80;;;;;;;;;;5042094;28;20032;-69
2022/06/01 01:08:27;;;;;;;21.10;19.05;;;11.30;99.90;;;;;;5050575;28;20040;-70
2022/06/01 01:10:52;;;;;;;21.58;19.63;;;11.40;99.90;;;;;;5050372;28;20028;-71
2022/06/01 01:13:18;;;;;;;21.90;19.80;;;11.30;99.90;;;;;;5049977;28;20033;-70
2022/06/01 01:15:58;;;;;;;23.77;21.33;;;11.30;99.90;;;;;;5050098;28;20033;-72
2022/06/01 01:18:36;;;;;;;21.92;19.73;;;11.20;99.90;;;;;;5050253;28;20501;-72
2022/06/01 01:21:24;;;;;;;21.40;19.40;;;11.30;99.90;;;;;;5049652;28;20458;-73
2022/06/01 01:24:13;;;;;;;21.92;19.75;;;11.20;99.90;;;;;;5048754;28;20029;-73
2022/06/01 01:26:40;;;;;;;22.60;20.42;;;11.30;99.90;;;;;;5050109;28;20417;-72
2022/06/01 01:29:11;;;;;;;23.63;21.23;;;11.30;99.90;;;;;;5049692;28;20473;-72
2022/06/01 01:31:39;;;;;;;21.85;19.67;;;11.40;99.90;;;;;;5049719;28;20429;-70
2022/06/01 01:34:05;;;;;;;21.27;19.27;;;11.30;99.90;;;;;;5049679;28;20233;-72
2022/06/01 01:36:39;;;;;;;18.83;17.15;;;11.30;99.90;;;;;;5050271;28;20063;-72
2022/06/01 01:39:12;;;;;;;17.65;15.85;;;11.10;99.90;;;;;;5048387;28;20025;-72
2022/06/01 01:41:48;;;;;;;18.20;16.42;;;11.20;99.90;;;;;;5050250;28;20088;-72
2022/06/01 01:44:17;;;;;;;18.20;16.38;;;11.30;99.90;;;;;;5049132;28;20888;-72
2022/06/01 01:46:47;;;;;;;16.98;15.25;;;11.20;99.90;;;;;;5048874;28;20090;-72
2022/06/01 01:49:14;;;;;;;17.23;14.85;;;11.20;99.90;;;;;;5049577;28;20037;-72
2022/06/01 01:51:39;;;;;;;19.23;15.73;;;11.00;99.90;;;;;;5050070;28;20020;-72
2022/06/01 01:54:18;;;;;;;15.98;13.98;;;11.30;99.90;;;;;;5049411;28;20428;-72
2022/06/01 01:56:56;;;;;;;14.95;13.45;;;11.20;99.90;;;;;;5050024;28;20032;-72
2022/06/01 01:59:31;;;;;;;13.27;11.93;;;11.20;99.90;;;;;;5049200;28;20053;-72
2022/06/01 02:02:07;;;;;;;14.32;12.88;;;11.20;99.90;;;;;;5049963;28;20592;-72
2022/06/01 02:07:41;;;;;;;12.93;11.60;;;11.50;99.90;;;;;;5050070;28;20040;-70
2022/06/01 02:12:52;;;;;;;14.35;12.85;;;11.20;99.90;;;;;;5053761;28;20069;-70
2022/06/01 02:15:26;;;;;;;13.93;12.15;;;11.20;99.90;;;;;;5052816;28;20021;-70
2022/06/01 02:17:57;;;;;;;12.77;11.52;;;10.90;99.90;;;;;;5053598;28;20138;-70
2022/06/01 02:20:35;;;;;;;11.68;10.35;;;11.30;99.90;;;;;;5052137;28;20482;-70
2022/06/01 02:23:01;;;;;;;10.90;9.85;;;;;;;;;;5052945;28;20470;-70
2022/06/01 02:25:29;;;;;;;12.02;10.93;;;;;;;;;;5053633;28;20086;-70
2022/06/01 02:27:57;;;;;;;10.65;9.65;;;11.10;99.90;;;;;;5052899;28;20086;-70
2022/06/01 02:30:33;;;;;;;10.68;9.52;;;11.10;99.90;;;;;;5051970;28;20409;-70
2022/06/01 02:33:00;;;;;;;11.15;9.98;;;11.10;99.90;;;;;;5053301;28;20040;-70
2022/06/01 02:35:29;;;;;;;11.48;10.38;;;11.00;99.90;;;;;;5053408;28;20029;-70
2022/06/01 02:37:57;;;;;;;11.50;10.30;;;11.10;99.90;;;;;;5053258;28;20091;-71
2022/06/01 02:40:25;;;;;;;10.10;9.10;;;11.00;99.90;;;;;;5052831;28;20417;-70
2022/06/01 02:42:52;;;;;;;13.70;10.50;;;11.10;99.90;;;;;;5052699;28;20508;-70
2022/06/01 02:45:21;;;;;;;12.15;10.73;;;11.10;99.90;;;;;;5052503;28;20485;-70
2022/06/01 02:47:48;;;;;;;11.85;10.38;;;10.20;99.90;;;;;;5052475;28;20042;-70
2022/06/01 02:50:18;;;;;;;11.30;10.20;;;11.10;99.90;;;;;;5050429;28;20023;-70
2022/06/01 02:52:44;;;;;;;11.40;10.27;;;11.10;99.90;;;;;;5050523;28;20032;-70
2022/06/01 02:55:11;;;;;;;11.82;10.63;;;11.00;99.90;;;;;;5050079;28;20068;-70
2022/06/01 02:57:37;;;;;;;13.50;11.07;;;11.10;99.90;;;;;;5051946;28;20074;-70
2022/06/01 03:00:10;;;;;;;11.48;9.57;;;11.10;99.90;;;;;;5050669;28;20017;-70
2022/06/01 03:02:39;;;;;;;9.63;8.70;;;11.00;99.90;;;;;;5051068;28;20017;-70
2022/06/01 03:05:06;;;;;;;12.02;9.48;;;;;;;;;;5051696;28;20029;-70
2022/06/01 03:07:32;;;;;;;11.25;10.00;;;11.00;99.90;;;;;;5051901;28;20243;-70
2022/06/01 03:09:57;;;;;;;10.27;9.25;;;11.00;99.90;;;;;;5053743;28;20481;-70
2022/06/01 03:12:23;;;;;;;9.77;7.90;;;10.90;99.90;;;;;;5051756;28;20115;-70
2022/06/01 03:14:48;;;;;;;8.98;8.07;;;11.00;99.90;;;;;;5052091;28;20474;-70
2022/06/01 03:17:14;;;;;;;10.02;8.52;;;10.90;99.90;;;;;;5051805;28;20138;-70
2022/06/01 03:19:39;;;;;;;8.07;7.33;;;10.90;99.90;;;;;;5052578;28;20473;-70
2022/06/01 03:22:05;;;;;;;8.55;7.75;;;10.80;99.90;;;;;;5050634;28;20447;-71
2022/06/01 03:24:32;;;;;;;8.82;7.80;;;10.80;99.90;;;;;;5052418;28;20535;-70
2022/06/01 03:26:58;;;;;;;11.70;8.18;;;10.80;99.90;;;;;;5051734;28;20108;-70
2022/06/01 03:29:24;;;;;;;10.52;9.13;;;10.60;99.90;;;;;;5052382;28;20125;-70
2022/06/01 03:31:51;;;;;;;9.50;8.55;;;10.60;99.90;;;;;;5052196;28;20021;-71
2022/06/01 03:34:17;;;;;;;8.93;8.13;;;;;;;;;;5051967;28;20512;-71
2022/06/01 03:36:42;;;;;;;10.17;9.17;;;10.50;99.90;;;;;;5051958;28;20040;-70
2022/06/01 03:39:08;;;;;;;12.00;9.93;;;10.50;99.90;;;;;;5051777;28;20028;-71
2022/06/01 03:41:34;;;;;;;10.13;8.90;;;10.20;99.90;;;;;;5051798;28;20028;-70
2022/06/01 03:46:44;;;;;;;9.80;8.75;;;10.40;99.90;;;;;;5052148;28;20036;-70
2022/06/01 03:49:10;;;;;;;10.05;9.05;;;10.50;99.90;;;;;;5051445;28;20032;-70
2022/06/01 03:51:36;;;;;;;10.27;8.10;;;;;;;;;;5052030;28;20457;-70
2022/06/01 03:54:02;;;;;;;15.53;10.00;;;10.30;99.90;;;;;;5051485;28;20100;-70
2022/06/01 03:56:27;;;;;;;10.33;9.20;;;10.40;99.90;;;;;;5051643;28;20116;-71
2022/06/01 03:58:53;;;;;;;9.93;8.93;;;10.30;99.90;;;;;;5050442;28;20017;-71
2022/06/01 04:01:19;;;;;;;10.35;8.75;;;10.40;99.90;;;;;;5050147;28;20033;-71
2022/06/01 04:03:45;;;;;;;12.52;10.15;;;10.40;99.90;;;;;;5051621;28;20045;-70
2022/06/01 04:06:11;;;;;;;15.63;11.10;;;10.40;99.90;;;;;;5051024;28;20076;-71
2022/06/01 04:08:37;;;;;;;10.43;9.40;;;10.30;99.90;;;;;;5051667;28;20075;-71
2022/06/01 04:11:03;;;;;;;12.37;11.13;;;10.50;99.90;;;;;;5050797;28;20112;-71
2022/06/01 04:13:29;;;;;;;12.43;10.33;;;10.40;99.90;;;;;;5053131;28;20100;-70
2022/06/01 04:15:54;;;;;;;12.27;10.97;;;10.50;99.90;;;;;;5052865;28;20155;-71
2022/06/01 04:18:20;;;;;;;12.82;11.35;;;;;;;;;;5050569;28;20044;-71
2022/06/01 04:20:50;;;;;;;12.83;11.60;;;10.50;99.90;;;;;;5051492;28;20036;-71
2022/06/01 04:23:15;;;;;;;13.75;12.27;;;10.30;99.90;;;;;;5051085;28;20125;-71
2022/06/01 04:25:41;;;;;;;13.70;12.30;;;11.00;99.90;;;;;;5051078;28;20493;-71
2022/06/01 04:28:07;;;;;;;16.33;14.68;;;10.80;99.90;;;;;;5049514;28;20151;-71
2022/06/01 04:30:33;;;;;;;17.88;16.02;;;10.80;99.90;;;;;;5051270;28;20021;-71
2022/06/01 04:32:59;;;;;;;17.00;15.02;;;;;;;;;;5050842;28;20040;-71
2022/06/01 04:35:25;;;;;;;18.77;16.55;;;11.10;99.90;;;;;;5051057;28;20028;-71
2022/06/01 04:37:51;;;;;;;23.43;20.93;;;11.10;99.90;;;;;;5050648;28;20033;-71
2022/06/01 04:40:18;;;;;;;22.73;20.53;;;11.10;99.90;;;;;;5033654;28;20033;-70
2022/06/01 04:42:44;;;;;;;21.65;19.58;;;11.30;99.90;;;;;;5031259;28;20025;-71
2022/06/01 04:45:12;;;;;;;21.38;18.90;;;11.30;99.90;;;;;;5042022;28;20358;-71
2022/06/01 04:47:38;;;;;;;22.05;19.77;;;11.40;99.90;;;;;;5049871;28;20025;-71
2022/06/01 04:50:04;;;;;;;21.90;18.63;;;11.60;99.90;;;;;;5035955;28;20037;-70
2022/06/01 04:52:30;;;;;;;21.33;19.00;;;11.50;99.90;;;;;;5036693;28;20071;-70
2022/06/01 04:54:55;;;;;;;24.45;21.90;;;11.60;99.90;;;;;;5037954;28;20021;-70
2022/06/01 04:57:21;;;;;;;26.70;23.15;;;11.70;99.90;;;;;;5034599;28;20025;-70
2022/06/01 04:59:47;;;;;;;27.55;22.88;;;;;;;;;;5031371;28;20032;-70
2022/06/01 05:02:13;;;;;;;24.25;20.27;;;;;;;;;;5030403;28;20049;-71
2022/06/01 05:04:40;;;;;;;27.30;22.65;;;;;;;;;;5030539;28;20021;-70
2022/06/01 05:07:06;;;;;;;24.42;21.60;;;11.90;99.90;;;;;;5042403;28;20028;-71
2022/06/01 05:09:31;;;;;;;22.35;20.05;;;11.70;99.90;;;;;;5050429;28;20100;-71
2022/06/01 05:11:57;;;;;;;20.70;18.40;;;;;;;;;;5050121;28;20387;-71
2022/06/01 05:14:23;;;;;;;22.90;19.95;;;;;;;;;;5040078;28;20178;-71
2022/06/01 05:16:49;;;;;;;21.58;19.27;;;11.40;99.90;;;;;;5050311;28;20421;-71
2022/06/01 05:19:15;;;;;;;20.98;18.45;;;11.50;99.90;;;;;;5049882;28;20037;-71
2022/06/01 05:21:40;;;;;;;22.73;20.25;;;11.20;99.90;;;;;;5043978;28;20026;-70
2022/06/01 05:24:06;;;;;;;21.10;18.90;;;11.30;99.90;;;;;;5030667;28;20119;-70
2022/06/01 05:26:32;;;;;;;21.27;19.08;;;11.30;99.90;;;;;;5037430;28;20032;-70
2022/06/01 05:28:58;;;;;;;20.42;18.27;;;;;;;;;;5030236;28;20048;-71
2022/06/01 05:31:24;;;;;;;20.23;18.17;;;11.40;99.90;;;;;;5030548;28;20033;-72
2022/06/01 05:33:50;;;;;;;20.35;17.75;;;11.30;99.90;;;;;;5037356;28;20098;-71
2022/06/01 05:36:17;;;;;;;18.80;16.80;;;11.40;99.90;;;;;;5052365;28;20032;-70
2022/06/01 05:38:45;;;;;;;21.77;19.20;;;11.50;99.90;;;;;;5050622;28;20025;-71
2022/06/01 05:41:11;;;;;;;19.15;16.83;;;11.50;99.90;;;;;;5049862;28;20366;-72
2022/06/01 05:43:37;;;;;;;20.08;18.00;;;11.70;99.90;;;;;;5048863;28;20059;-71
2022/06/01 05:46:03;;;;;;;23.88;19.55;;;11.60;99.90;;;;;;5053085;28;20066;-71
2022/06/01 05:48:29;;;;;;;17.58;15.90;;;11.80;99.90;;;;;;5056485;28;20040;-74
2022/06/01 05:50:55;;;;;;;17.23;15.40;;;11.80;99.90;;;;;;5056146;28;20017;-74
2022/06/01 05:53:21;;;;;;;17.48;15.23;;;;;;;;;;5053894;28;20025;-72
2022/06/01 05:55:47;;;;;;;14.88;13.23;;;11.80;99.90;;;;;;5058619;28;20456;-74
2022/06/01 05:58:18;;;;;;;18.10;15.80;;;12.00;99.90;;;;;;5056322;28;20037;-72
2022/06/01 06:00:46;;;;;;;18.88;14.98;;;11.90;99.90;;;;;;5036805;28;20033;-73
2022/06/01 06:03:12;;;;;;;15.93;14.07;;;12.00;99.90;;;;;;5036219;28;20033;-72
2022/06/01 06:08:22;;;;;;;16.13;12.82;;;12.00;99.90;;;;;;5051101;28;20048;-71
2022/06/01 06:10:49;;;;;;;15.20;12.98;;;12.10;99.90;;;;;;5056416;28;20040;-71
2022/06/01 06:13:15;;;;;;;16.42;14.30;;;;;;;;;;5056012;28;20033;-73
2022/06/01 06:15:41;;;;;;;15.40;13.70;;;12.40;99.90;;;;;;5056556;28;20432;-73
2022/06/01 06:18:09;;;;;;;14.05;12.70;;;12.40;99.90;;;;;;5055773;28;20052;-71
2022/06/01 06:20:35;;;;;;;14.80;13.30;;;12.30;99.90;;;;;;5055993;28;20029;-72
2022/06/01 06:23:00;;;;;;;16.27;13.68;;;12.50;99.90;;;;;;5055561;28;20036;-72
2022/06/01 06:25:26;;;;;;;18.17;16.35;;;12.40;99.90;;;;;;5056269;28;20398;-72
2022/06/01 06:27:52;;;;;;;18.33;13.95;;;12.60;99.90;;;;;;5056219;28;20126;-72
2022/06/01 06:30:19;;;;;;;15.63;14.13;;;12.50;99.90;;;;;;5055436;28;20147;-72
2022/06/01 06:32:45;;;;;;;17.25;15.65;;;12.60;99.90;;;;;;5055809;28;20040;-72
2022/06/01 06:35:11;;;;;;;17.45;15.20;;;12.50;99.90;;;;;;5055125;28;20405;-72
2022/06/01 06:37:37;;;;;;;18.92;16.98;;;12.70;99.90;;;;;;5055945;28;20035;-72
2022/06/01 06:40:04;;;;;;;16.15;14.27;;;12.60;99.90;;;;;;5055656;28;20036;-72
2022/06/01 06:42:30;;;;;;;17.40;15.70;;;12.90;99.90;;;;;;5055522;28;20539;-72
2022/06/01 06:44:55;;;;;;;15.68;14.13;;;12.60;99.90;;;;;;5052984;28;20033;-73
2022/06/01 06:47:21;;;;;;;12.90;11.65;;;13.00;99.90;;;;;;5053847;28;20028;-72
2022/06/01 06:49:47;;;;;;;14.95;13.52;;;;;;;;;;5035532;28;20037;-72
2022/06/01 06:52:13;;;;;;;14.02;12.63;;;13.00;99.90;;;;;;5034620;28;20411;-72
2022/06/01 06:54:38;;;;;;;13.60;12.20;;;13.20;99.90;;;;;;5051982;28;20040;-71
2022/06/01 06:57:04;;;;;;;17.92;12.77;;;13.30;99.90;;;;;;5042669;28;20064;-72
2022/06/01 06:59:30;;;;;;;12.02;10.82;;;13.40;99.90;;;;;;5052094;28;20040;-73
2022/06/01 07:01:55;;;;;;;13.65;10.40;;;13.50;99.90;;;;;;5049861;28;20032;-73
2022/06/01 07:04:21;;;;;;;15.15;13.10;;;13.70;99.90;;;;;;5051694;28;20033;-71
2022/06/01 07:06:47;;;;;;;11.10;9.98;;;;;;;;;;5052418;28;20116;-71
2022/06/01 07:09:12;;;;;;;12.88;11.38;;;13.80;99.90;;;;;;5051752;28;20470;-72
2022/06/01 07:11:38;;;;;;;12.45;11.10;;;14.00;99.90;;;;;;5049145;28;20114;-71
2022/06/01 07:14:04;;;;;;;9.65;8.65;;;14.10;99.90;;;;;;5050679;28;20090;-71
2022/06/01 07:16:32;;;;;;;15.63;13.05;;;14.20;99.90;;;;;;5050855;28;20028;-71
2022/06/01 07:19:00;;;;;;;10.70;9.80;;;13.90;99.90;;;;;;5051202;28;20049;-71
2022/06/01 07:21:26;;;;;;;10.90;9.77;;;14.60;99.90;;;;;;5051858;28;20037;-71
2022/06/01 07:23:52;;;;;;;9.35;8.55;;;14.60;99.90;;;;;;5052253;28;20032;-71
2022/06/01 07:26:22;;;;;;;10.70;8.73;;;14.70;99.90;;;;;;5051659;28;20025;-71
2022/06/01 07:28:48;;;;;;;10.07;9.20;;;14.80;99.90;;;;;;5052132;28;20033;-71
2022/06/01 07:31:15;;;;;;;10.30;9.30;;;14.80;99.90;;;;;;5051857;28;20096;-71
2022/06/01 07:33:41;;;;;;;9.43;8.57;;;14.80;99.90;;;;;;5051524;28;20025;-71
2022/06/01 07:36:09;;;;;;;11.23;9.73;;;14.90;99.90;;;;;;5051258;28;20033;-72
2022/06/01 07:44:19;;;;;;;8.82;7.68;;;15.10;99.90;;;;;;5049894;28;20815;-72
2022/06/01 07:46:45;;;;;;;6.90;6.20;;;15.00;99.90;;;;;;5051895;28;20024;-72
2022/06/01 07:49:11;;;;;;;6.57;5.75;;;14.30;99.90;;;;;;5052988;28;20047;-70
2022/06/01 07:51:38;;;;;;;5.85;5.35;;;14.80;99.90;;;;;;5052635;28;20040;-72
2022/06/01 07:54:04;;;;;;;5.65;5.15;;;14.70;99.90;;;;;;5051375;28;20033;-71
2022/06/01 07:56:31;;;;;;;6.28;5.68;;;15.00;99.90;;;;;;5041385;28;20025;-71
2022/06/01 07:58:56;;;;;;;9.18;6.40;;;15.30;99.90;;;;;;5034415;28;20087;-72
2022/06/01 08:01:25;;;;;;;7.05;6.20;;;15.20;99.90;;;;;;5051135;28;20025;-71
2022/06/01 08:03:56;;;;;;;8.05;6.63;;;14.90;99.90;;;;;;5051235;28;20505;-71
2022/06/01 08:06:23;;;;;;;9.57;7.03;;;15.30;99.90;;;;;;5044722;28;20025;-71
2022/06/01 08:08:48;;;;;;;6.95;5.93;;;15.20;99.90;;;;;;5046436;28;20029;-71
2022/06/01 08:11:14;;;;;;;6.10;5.50;;;15.30;99.90;;;;;;5048830;28;20031;-71
2022/06/01 08:13:40;;;;;;;6.80;6.13;;;15.10;99.90;;;;;;5049549;28;20048;-71
2022/06/01 08:16:06;;;;;;;6.60;4.93;;;14.90;99.90;;;;;;5028915;28;20056;-71
2022/06/01 08:18:32;;;;;;;8.63;6.18;;;15.00;99.90;;;;;;5031274;28;20060;-72
2022/06/01 08:20:57;;;;;;;5.35;4.82;;;14.90;99.90;;;;;;5032654;28;20033;-72
2022/06/01 08:23:26;;;;;;;8.55;7.35;;;15.10;99.90;;;;;;5048137;28;20043;-71
2022/06/01 08:25:52;;;;;;;5.90;5.35;;;15.00;99.90;;;;;;5049478;28;20064;-71
2022/06/01 08:28:18;;;;;;;6.50;5.90;;;15.40;99.90;;;;;;5049024;28;20068;-71
2022/06/01 08:30:44;;;;;;;5.63;4.30;;;15.50;99.90;;;;;;5048856;28;20017;-71
2022/06/01 08:33:12;;;;;;;6.00;5.25;;;15.70;99.90;;;;;;5049755;28;20071;-71
2022/06/01 08:35:40;;;;;;;4.82;4.38;;;15.80;99.90;;;;;;5051135;28;20020;-71
2022/06/01 08:38:06;;;;;;;7.78;4.25;;;15.70;99.90;;;;;;5029889;28;20026;-71
2022/06/01 08:40:38;;;;;;;4.13;3.15;;;16.10;99.90;;;;;;5029221;28;20060;-71
2022/06/01 08:43:09;;;;;;;4.03;3.63;;;16.10;99.90;;;;;;5041799;28;20032;-71
2022/06/01 08:45:35;;;;;;;3.45;3.15;;;16.10;99.90;;;;;;5050537;28;20021;-71
2022/06/01 08:48:02;;;;;;;4.47;3.83;;;16.00;99.90;;;;;;5050122;28;20094;-71
2022/06/01 08:50:36;;;;;;;5.40;3.60;;;16.50;99.90;;;;;;5050158;28;20474;-71
2022/06/01 08:53:05;;;;;;;4.03;3.35;;;16.40;99.90;;;;;;5040791;28;20033;-70
2022/06/01 08:55:55;;;;;;;4.10;3.25;;;18.40;99.90;;;;;;5049178;28;20032;-71
2022/06/01 08:58:35;;;;;;;7.07;4.05;;;17.10;99.90;;;;;;5049585;28;20040;-70
2022/06/01 09:01:19;;;;;;;3.60;3.30;;;17.30;99.90;;;;;;5049458;28;20028;-72
2022/06/01 09:03:53;;;;;;;3.38;2.90;;;17.30;99.40;;;;;;5049923;28;20166;-71
2022/06/01 09:06:29;;;;;;;5.82;3.30;;;17.10;99.90;;;;;;5038255;28;20108;-70
2022/06/01 09:09:01;;;;;;;4.00;3.33;;;17.30;98.30;;;;;;5029276;28;20087;-71
2022/06/01 09:11:32;;;;;;;4.38;2.85;;;17.40;98.80;;;;;;5029141;28;20060;-70
2022/06/01 09:14:20;;;;;;;3.63;3.33;;;17.40;98.60;;;;;;5047361;28;20078;-71
2022/06/01 09:16:48;;;;;;;4.57;4.05;;;17.60;97.80;;;;;;5042688;28;20021;-71
2022/06/01 09:19:21;;;;;;;6.97;4.68;;;17.50;97.90;;;;;;5029139;28;20065;-71
2022/06/01 09:24:47;;;;;;;4.70;3.72;;;17.20;98.30;;;;;;5030558;28;20087;-71
2022/06/01 09:27:14;;;;;;;5.22;4.38;;;17.20;98.20;;;;;;5049402;28;20087;-72
2022/06/01 09:29:49;;;;;;;5.65;5.07;;;16.80;98.10;;;;;;5048980;28;20058;-71
2022/06/01 09:32:40;;;;;;;6.05;5.22;;;16.70;99.90;;;;;;5049796;28;20434;-71
2022/06/01 09:35:10;;;;;;;4.72;4.25;;;17.00;99.90;;;;;;5049276;28;20441;-72
2022/06/01 09:37:40;;;;;;;5.05;4.65;;;17.10;97.60;;;;;;5049510;28;20029;-72
2022/06/01 09:40:20;;;;;;;3.47;3.17;;;17.30;96.80;;;;;;5049228;28;20092;-73
2022/06/01 09:42:51;;;;;;;5.85;5.35;;;17.50;97.50;;;;;;5046768;28;20049;-71
2022/06/01 09:45:37;;;;;;;5.25;4.85;;;17.10;99.90;;;;;;5049166;28;20132;-71
2022/06/01 09:48:11;;;;;;;6.55;4.93;;;17.20;96.30;;;;;;5048448;28;20095;-71
2022/06/01 09:50:38;;;;;;;;;;;17.10;97.00;;;;;;5050440;28;20033;-72
2022/06/01 09:53:20;;;;;;;6.72;5.97;;;16.90;97.60;;;;;;5049362;28;19958;-71
2022/06/01 09:55:55;;;;;;;8.95;5.65;;;15.70;99.90;;;;;;5065998;28;20032;-71
2022/06/01 10:07:04;;;;;;;3.75;3.35;;;15.10;99.90;;;;;;5049145;28;20529;-71
2022/06/01 10:09:32;;;;;;;4.00;3.58;;;15.10;99.90;;;;;;5062941;28;20086;-71
2022/06/01 10:11:58;;;;;;;3.42;2.45;;;15.30;99.90;;;;;;5052180;28;20029;-71
2022/06/01 10:14:30;;;;;;;4.07;3.03;;;15.60;99.90;;;;;;5049787;28;20394;-71
2022/06/01 10:17:26;;;;;;;2.58;2.40;;;15.90;99.90;;;;;;5049687;28;20029;-71
2022/06/01 10:20:07;;;;;;;7.25;4.88;;;15.70;99.90;;;;;;5049278;28;20127;-71
2022/06/01 10:23:11;;;;;;;6.60;5.82;;;16.10;99.90;;;;;;5047275;28;20108;-71
2022/06/01 10:25:42;;;;;;;4.68;4.38;;;16.00;99.90;;;;;;5015986;28;20033;-70
2022/06/01 10:28:18;;;;;;;5.03;4.15;;;15.90;99.90;;;;;;5060544;28;20040;-71
2022/06/01 10:30:51;;;;;;;5.07;4.32;;;16.10;99.90;;;;;;5069648;28;20028;-71
2022/06/01 10:33:21;;;;;;;3.50;3.15;;;16.30;99.90;;;;;;5072358;28;20048;-71
2022/06/01 10:36:02;;;;;;;5.80;4.07;;;16.30;99.90;;;;;;5073258;28;20107;-70
2022/06/01 10:38:35;;;;;;;5.15;4.75;;;16.50;98.80;;;;;;5073355;28;20117;-69
2022/06/01 10:41:04;;;;;;;6.25;4.45;;;16.60;99.20;;;;;;5067577;28;20497;-72
2022/06/01 10:43:44;;;;;;;5.10;4.63;;;16.60;99.00;;;;;;5051589;28;20075;-70
2022/06/01 10:46:35;;;;;;;7.53;4.55;;;16.60;98.20;;;;;;5049730;28;20421;-70
2022/06/01 10:49:18;;;;;;;5.57;5.00;;;16.60;98.40;;;;;;5043962;28;20039;-70
2022/06/01 10:51:47;;;;;;;4.07;3.75;;;16.00;99.90;;;;;;5052735;28;20017;-70
2022/06/01 10:54:31;;;;;;;6.18;4.22;;;16.20;99.90;;;;;;5051078;28;20032;-70
2022/06/01 10:56:57;;;;;;;4.60;3.92;;;16.10;99.90;;;;;;5037444;28;20467;-70
2022/06/01 10:59:25;;;;;;;3.50;3.20;;;16.10;99.90;;;;;;5036601;28;20032;-70
2022/06/01 11:02:00;;;;;;;3.67;3.38;;;15.70;99.90;;;;;;5051265;28;20090;-71
2022/06/01 11:04:34;;;;;;;5.32;2.72;;;16.90;99.90;;;;;;5049559;28;20020;-71
2022/06/01 11:07:12;;;;;;;3.55;2.95;;;15.60;99.90;;;;;;5051506;28;20025;-71
2022/06/01 11:09:58;;;;;;;3.80;2.47;;;15.50;99.90;;;;;;5051413;28;20032;-71
2022/06/01 11:12:44;;;;;;;4.03;1.60;;;15.90;99.90;;;;;;5051587;28;20114;-71
2022/06/01 11:15:15;;;;;;;3.45;1.42;;;16.10;99.90;;;;;;5048712;28;20052;-71
2022/06/01 11:17:57;;;;;;;1.63;1.00;;;15.90;98.60;;;;;;5042935;28;20073;-71
2022/06/01 11:20:51;;;;;;;3.92;1.48;;;16.50;99.80;;;;;;5049494;28;20124;-71
2022/06/01 11:23:35;;;;;;;2.25;1.15;;;15.70;99.90;;;;;;5048550;28;20025;-71
2022/06/01 11:26:26;;;;;;;2.70;2.22;;;15.80;99.90;;;;;;5048655;28;20466;-71
2022/06/01 11:29:15;;;;;;;4.32;2.83;;;15.80;99.00;;;;;;5052287;28;20524;-71
2022/06/01 11:31:44;;;;;;;4.50;3.42;;;15.50;99.90;;;;;;5051838;28;20032;-71
2022/06/01 11:34:32;;;;;;;5.03;3.70;;;15.80;99.90;;;;;;5051713;28;20490;-71
2022/06/01 11:37:05;;;;;;;5.05;3.97;;;15.80;99.90;;;;;;5052141;28;20035;-71
2022/06/01 11:39:46;;;;;;;4.85;3.90;;;16.00;99.90;;;;;;5051757;28;20056;-71
2022/06/01 11:42:23;;;;;;;4.18;3.78;;;17.00;99.90;;;;;;5051392;28;20724;-71
2022/06/01 11:45:04;;;;;;;3.97;3.40;;;16.00;99.90;;;;;;5049736;28;20106;-71
2022/06/01 11:48:00;;;;;;;4.55;3.25;;;16.50;99.90;;;;;;5043838;28;20064;-71
2022/06/01 11:50:55;;;;;;;4.55;4.13;;;16.50;99.90;;;;;;5031133;28;20394;-72
2022/06/01 11:53:33;;;;;;;4.22;3.80;;;17.00;99.40;;;;;;5031130;28;20029;-72
2022/06/01 11:56:34;;;;;;;6.32;4.60;;;18.40;99.90;;;;;;5030709;28;20445;-71
2022/06/01 11:59:28;;;;;;;4.93;4.18;;;17.20;98.90;;;;;;5028392;28;20059;-71
2022/06/01 12:01:56;;;;;;;3.88;3.55;;;17.30;99.90;;;;;;5051920;28;20032;-71
2022/06/01 12:04:40;;;;;;;4.97;3.97;;;17.20;99.70;;;;;;5050072;28;20021;-72
2022/06/01 12:07:19;;;;;;;5.97;4.75;;;17.30;99.90;;;;;;5051073;28;20382;-71
2022/06/01 12:10:18;;;;;;;7.30;5.03;;;17.40;99.90;;;;;;5055159;28;20055;-71
2022/06/01 12:12:46;;;;;;;6.45;5.65;;;17.40;99.10;;;;;;5071671;28;20018;-71
2022/06/01 12:15:39;;;;;;;5.60;4.78;;;17.40;99.60;;;;;;5070839;28;20043;-71
2022/06/01 12:18:14;;;;;;;5.47;4.72;;;17.70;98.90;;;;;;5052692;28;20072;-72
2022/06/01 12:20:39;;;;;;;2.63;2.42;;;17.80;99.40;;;;;;5038434;28;20025;-71
2022/06/01 12:28:48;;;;;;;;;;;17.60;95.70;;;;;;5051602;28;20106;-72
2022/06/01 12:31:26;;;;;;;0.70;0.50;;;17.50;95.60;;;;;;5049331;28;19912;-72
2022/06/01 12:34:01;;;;;;;0.70;0.60;;;17.50;99.90;;;;;;5050720;28;20025;-71
2022/06/01 12:36:37;;;;;;;1.13;0.68;;;17.70;95.40;;;;;;5050609;28;20024;-71
2022/06/01 12:39:17;;;;;;;0.90;0.60;;;17.90;94.10;;;;;;5045275;28;20057;-71
2022/06/01 12:41:48;;;;;;;0.68;0.50;;;18.30;94.30;;;;;;5031697;28;20014;-71
2022/06/01 12:44:16;;;;;;;0.30;0.30;;;18.00;93.10;;;;;;5031194;28;20025;-71
2022/06/01 12:46:45;;;;;;;1.38;0.30;;;17.90;91.70;;;;;;5030963;28;20033;-71
2022/06/01 12:49:32;;;;;;;1.95;0.40;;;17.90;91.30;;;;;;5030328;28;20030;-71
2022/06/01 12:52:04;;;;;;;0.40;0.30;;;19.00;91.60;;;;;;5031337;28;20025;-71
2022/06/01 12:54:40;;;;;;;1.27;0.50;;;18.30;91.40;;;;;;5031138;28;20021;-72
2022/06/01 12:57:09;;;;;;;0.68;0.50;;;19.10;91.40;;;;;;5030480;28;20098;-73
2022/06/01 12:59:38;;;;;;;2.20;0.65;;;18.10;90.60;;;;;;5039541;28;20025;-72
2022/06/01 13:02:08;;;;;;;1.08;0.60;;;18.10;90.70;;;;;;5044621;28;20017;-72
2022/06/01 13:04:34;;;;;;;2.55;0.70;;;18.10;90.60;;;;;;5030832;28;20486;-72
2022/06/01 13:07:00;;;;;;;2.00;0.60;;;17.60;90.40;;;;;;5029638;28;20027;-72
2022/06/01 13:09:31;;;;;;;1.67;0.40;;;19.60;91.40;;;;;;5030230;28;20040;-74
2022/06/01 13:12:01;;;;;;;0.50;0.40;;;18.10;90.80;;;;;;5030184;28;20449;-73
2022/06/01 13:14:30;;;;;;;1.17;0.40;;;18.10;90.20;;;;;;5030107;28;20544;-73
2022/06/01 13:17:09;;;;;;;1.15;0.45;;;19.50;90.20;;;;;;5029837;28;20029;-73
2022/06/01 13:19:34;;;;;;;1.60;0.50;;;18.30;90.10;;;;;;5030358;28;20112;-73
2022/06/01 13:22:25;;;;;;;0.73;0.55;;;18.30;89.00;;;;;;5049207;28;20029;-73
2022/06/01 13:25:04;;;;;;;0.93;0.60;;;18.20;88.10;;;;;;5031820;28;20061;-72
2022/06/01 13:27:30;;;;;;;1.45;0.90;;;18.50;89.70;;;;;;5031105;28;20056;-73
2022/06/01 13:29:58;;;;;;;2.70;0.70;;;19.30;89.80;;;;;;5040471;28;20500;-72
2022/06/01 13:32:30;;;;;;;0.90;0.50;;;19.20;89.40;;;;;;5030344;28;20032;-72
2022/06/01 13:35:03;;;;;;;0.60;0.50;;;19.90;90.20;;;;;;5030322;28;20025;-72
2022/06/01 13:37:30;;;;;;;1.95;0.50;;;18.50;88.70;;;;;;5040036;28;20025;-72